Gene Autry, Oklahoma
Current Conditions -  °F | °C
As of 9:55 AM on Thursday 23 Oct 2014 (Local Time) from KADM Reporting Station
Scattered Clouds Scattered Clouds  
Wind Chill: 64°   Ceiling: Unl
Heat Index: 64°   Visibility: 10mi
Dew Point: 61°   Wind: 7mph
Humidity: 88%   Direction: 120°ESE
Pressure: 30.17"   Gusts: NA
Location:  34.28°N, 97.04°W
Report Text: KADM 231455Z 12006KT 10SM SCT100 18/16 A3017
Loading
Personal Weather Stations






























Interactive Weather Map
Tropical Storm Tracking
New forecast layout! Learn more

10-Day Weather Forecast

Advertisements
Track Severe Weather on mobile